sensor_id;sensor_type;location;lat;lon;timestamp;P1;durP1;ratioP1;P2;durP2;ratioP2
39128;SDS011;24864;49.940;19.770;2022-09-09T00:00:14;11.50;;;10.40;;
39128;SDS011;24864;49.940;19.770;2022-09-09T00:03:05;11.57;;;10.57;;
39128;SDS011;24864;49.940;19.770;2022-09-09T00:05:41;12.35;;;11.15;;
39128;SDS011;24864;49.940;19.770;2022-09-09T00:08:15;11.35;;;10.27;;
39128;SDS011;24864;49.940;19.770;2022-09-09T00:10:48;12.32;;;10.98;;
39128;SDS011;24864;49.940;19.770;2022-09-09T00:13:22;10.88;;;9.82;;
39128;SDS011;24864;49.940;19.770;2022-09-09T00:15:59;10.93;;;10.02;;
39128;SDS011;24864;49.940;19.770;2022-09-09T00:18:35;10.93;;;9.80;;
39128;SDS011;24864;49.940;19.770;2022-09-09T00:21:15;9.60;;;8.80;;
39128;SDS011;24864;49.940;19.770;2022-09-09T00:23:44;9.75;;;8.75;;
39128;SDS011;24864;49.940;19.770;2022-09-09T00:26:19;10.40;;;9.50;;
39128;SDS011;24864;49.940;19.770;2022-09-09T00:28:55;8.68;;;7.68;;
39128;SDS011;24864;49.940;19.770;2022-09-09T00:31:30;9.57;;;8.68;;
39128;SDS011;24864;49.940;19.770;2022-09-09T00:34:00;8.40;;;7.60;;
39128;SDS011;24864;49.940;19.770;2022-09-09T00:36:37;9.00;;;8.20;;
39128;SDS011;24864;49.940;19.770;2022-09-09T00:39:08;8.25;;;7.00;;
39128;SDS011;24864;49.940;19.770;2022-09-09T00:41:46;10.05;;;6.60;;
39128;SDS011;24864;49.940;19.770;2022-09-09T00:44:28;7.47;;;6.65;;
39128;SDS011;24864;49.940;19.770;2022-09-09T00:47:15;7.63;;;6.63;;
39128;SDS011;24864;49.940;19.770;2022-09-09T00:49:59;7.30;;;5.88;;
39128;SDS011;24864;49.940;19.770;2022-09-09T00:52:32;6.82;;;5.43;;
39128;SDS011;24864;49.940;19.770;2022-09-09T00:55:09;6.75;;;5.45;;
39128;SDS011;24864;49.940;19.770;2022-09-09T00:57:43;5.22;;;4.78;;
39128;SDS011;24864;49.940;19.770;2022-09-09T01:00:17;5.25;;;4.75;;
39128;SDS011;24864;49.940;19.770;2022-09-09T01:02:52;7.10;;;4.47;;
39128;SDS011;24864;49.940;19.770;2022-09-09T01:05:30;5.93;;;4.28;;
39128;SDS011;24864;49.940;19.770;2022-09-09T01:08:05;5.10;;;4.60;;
39128;SDS011;24864;49.940;19.770;2022-09-09T01:10:44;4.50;;;4.10;;
39128;SDS011;24864;49.940;19.770;2022-09-09T01:13:19;5.00;;;3.60;;
39128;SDS011;24864;49.940;19.770;2022-09-09T01:15:51;4.35;;;3.83;;
39128;SDS011;24864;49.940;19.770;2022-09-09T01:18:29;5.78;;;4.13;;
39128;SDS011;24864;49.940;19.770;2022-09-09T01:21:03;5.72;;;4.15;;
39128;SDS011;24864;49.940;19.770;2022-09-09T01:23:41;5.38;;;4.68;;
39128;SDS011;24864;49.940;19.770;2022-09-09T01:26:24;6.03;;;4.40;;
39128;SDS011;24864;49.940;19.770;2022-09-09T01:28:55;5.55;;;4.50;;
39128;SDS011;24864;49.940;19.770;2022-09-09T01:31:26;8.90;;;4.75;;
39128;SDS011;24864;49.940;19.770;2022-09-09T01:33:56;5.50;;;4.43;;
39128;SDS011;24864;49.940;19.770;2022-09-09T01:36:25;4.80;;;4.03;;
39128;SDS011;24864;49.940;19.770;2022-09-09T01:38:56;5.45;;;4.88;;
39128;SDS011;24864;49.940;19.770;2022-09-09T01:41:26;5.05;;;4.57;;
39128;SDS011;24864;49.940;19.770;2022-09-09T01:43:54;5.45;;;4.60;;
39128;SDS011;24864;49.940;19.770;2022-09-09T01:46:23;7.85;;;5.18;;
39128;SDS011;24864;49.940;19.770;2022-09-09T01:48:51;5.50;;;4.90;;
39128;SDS011;24864;49.940;19.770;2022-09-09T01:51:20;8.02;;;5.32;;
39128;SDS011;24864;49.940;19.770;2022-09-09T01:53:48;6.25;;;5.65;;
39128;SDS011;24864;49.940;19.770;2022-09-09T01:56:21;7.85;;;5.43;;
39128;SDS011;24864;49.940;19.770;2022-09-09T01:59:03;9.35;;;5.78;;
39128;SDS011;24864;49.940;19.770;2022-09-09T02:01:45;6.38;;;5.80;;
39128;SDS011;24864;49.940;19.770;2022-09-09T02:04:29;7.85;;;5.53;;
39128;SDS011;24864;49.940;19.770;2022-09-09T02:07:06;7.20;;;6.43;;
39128;SDS011;24864;49.940;19.770;2022-09-09T02:09:44;7.10;;;6.40;;
39128;SDS011;24864;49.940;19.770;2022-09-09T02:12:20;6.55;;;5.82;;
39128;SDS011;24864;49.940;19.770;2022-09-09T02:14:53;6.80;;;6.13;;
39128;SDS011;24864;49.940;19.770;2022-09-09T02:17:25;6.57;;;5.45;;
39128;SDS011;24864;49.940;19.770;2022-09-09T02:19:57;7.00;;;6.32;;
39128;SDS011;24864;49.940;19.770;2022-09-09T02:22:32;10.18;;;7.18;;
39128;SDS011;24864;49.940;19.770;2022-09-09T02:25:03;9.55;;;6.93;;
39128;SDS011;24864;49.940;19.770;2022-09-09T02:27:34;8.57;;;7.28;;
39128;SDS011;24864;49.940;19.770;2022-09-09T02:30:02;8.43;;;7.35;;
39128;SDS011;24864;49.940;19.770;2022-09-09T02:32:32;9.07;;;7.60;;
39128;SDS011;24864;49.940;19.770;2022-09-09T02:35:03;9.02;;;8.07;;
39128;SDS011;24864;49.940;19.770;2022-09-09T02:37:38;8.75;;;7.75;;
39128;SDS011;24864;49.940;19.770;2022-09-09T02:40:09;9.00;;;8.13;;
39128;SDS011;24864;49.940;19.770;2022-09-09T02:42:41;12.27;;;8.77;;
39128;SDS011;24864;49.940;19.770;2022-09-09T02:45:10;9.77;;;8.88;;
39128;SDS011;24864;49.940;19.770;2022-09-09T02:47:42;10.40;;;9.35;;
39128;SDS011;24864;49.940;19.770;2022-09-09T02:50:16;11.15;;;9.18;;
39128;SDS011;24864;49.940;19.770;2022-09-09T02:52:52;10.57;;;8.55;;
39128;SDS011;24864;49.940;19.770;2022-09-09T02:55:29;10.05;;;9.05;;
39128;SDS011;24864;49.940;19.770;2022-09-09T02:58:07;10.05;;;8.90;;
39128;SDS011;24864;49.940;19.770;2022-09-09T03:00:38;15.57;;;10.63;;
39128;SDS011;24864;49.940;19.770;2022-09-09T03:03:07;12.10;;;10.30;;
39128;SDS011;24864;49.940;19.770;2022-09-09T03:05:36;10.95;;;9.48;;
39128;SDS011;24864;49.940;19.770;2022-09-09T03:08:05;13.32;;;11.85;;
39128;SDS011;24864;49.940;19.770;2022-09-09T03:10:34;11.90;;;10.70;;
39128;SDS011;24864;49.940;19.770;2022-09-09T03:13:03;16.48;;;13.68;;
39128;SDS011;24864;49.940;19.770;2022-09-09T03:15:33;19.35;;;17.45;;
39128;SDS011;24864;49.940;19.770;2022-09-09T03:18:01;14.93;;;13.05;;
39128;SDS011;24864;49.940;19.770;2022-09-09T03:20:29;11.30;;;9.93;;
39128;SDS011;24864;49.940;19.770;2022-09-09T03:22:59;12.38;;;8.90;;
39128;SDS011;24864;49.940;19.770;2022-09-09T03:25:28;12.57;;;9.05;;
39128;SDS011;24864;49.940;19.770;2022-09-09T03:27:56;10.40;;;9.38;;
39128;SDS011;24864;49.940;19.770;2022-09-09T03:30:24;10.07;;;9.10;;
39128;SDS011;24864;49.940;19.770;2022-09-09T03:32:55;9.38;;;8.07;;
39128;SDS011;24864;49.940;19.770;2022-09-09T03:35:23;10.57;;;9.48;;
39128;SDS011;24864;49.940;19.770;2022-09-09T03:37:51;13.05;;;8.15;;
39128;SDS011;24864;49.940;19.770;2022-09-09T03:40:20;10.15;;;9.15;;
39128;SDS011;24864;49.940;19.770;2022-09-09T03:42:49;11.05;;;8.80;;
39128;SDS011;24864;49.940;19.770;2022-09-09T03:45:17;12.90;;;9.73;;
39128;SDS011;24864;49.940;19.770;2022-09-09T03:47:45;10.63;;;9.65;;
39128;SDS011;24864;49.940;19.770;2022-09-09T03:50:14;11.77;;;10.05;;
39128;SDS011;24864;49.940;19.770;2022-09-09T03:52:42;12.75;;;10.18;;
39128;SDS011;24864;49.940;19.770;2022-09-09T03:55:10;12.82;;;11.25;;
39128;SDS011;24864;49.940;19.770;2022-09-09T03:57:38;12.27;;;10.98;;
39128;SDS011;24864;49.940;19.770;2022-09-09T04:00:06;16.83;;;11.48;;
39128;SDS011;24864;49.940;19.770;2022-09-09T04:02:36;12.77;;;11.43;;
39128;SDS011;24864;49.940;19.770;2022-09-09T04:05:04;14.50;;;10.55;;
39128;SDS011;24864;49.940;19.770;2022-09-09T04:07:34;16.52;;;10.50;;
39128;SDS011;24864;49.940;19.770;2022-09-09T04:10:02;9.77;;;8.82;;
39128;SDS011;24864;49.940;19.770;2022-09-09T04:12:31;9.48;;;8.13;;
39128;SDS011;24864;49.940;19.770;2022-09-09T04:14:58;11.13;;;7.68;;
39128;SDS011;24864;49.940;19.770;2022-09-09T04:17:28;8.48;;;7.68;;
39128;SDS011;24864;49.940;19.770;2022-09-09T04:19:56;11.95;;;8.85;;
39128;SDS011;24864;49.940;19.770;2022-09-09T04:22:24;9.63;;;8.35;;
39128;SDS011;24864;49.940;19.770;2022-09-09T04:24:54;10.23;;;8.23;;
39128;SDS011;24864;49.940;19.770;2022-09-09T04:27:21;11.05;;;7.13;;
39128;SDS011;24864;49.940;19.770;2022-09-09T04:29:49;8.90;;;8.00;;
39128;SDS011;24864;49.940;19.770;2022-09-09T04:32:17;9.60;;;8.25;;
39128;SDS011;24864;49.940;19.770;2022-09-09T04:34:45;10.15;;;6.80;;
39128;SDS011;24864;49.940;19.770;2022-09-09T04:37:14;7.82;;;7.13;;
39128;SDS011;24864;49.940;19.770;2022-09-09T04:39:43;6.72;;;6.00;;
39128;SDS011;24864;49.940;19.770;2022-09-09T04:42:12;8.95;;;6.57;;
39128;SDS011;24864;49.940;19.770;2022-09-09T04:44:41;6.40;;;5.88;;
39128;SDS011;24864;49.940;19.770;2022-09-09T04:47:09;8.13;;;5.88;;
39128;SDS011;24864;49.940;19.770;2022-09-09T04:49:37;6.95;;;6.35;;
39128;SDS011;24864;49.940;19.770;2022-09-09T04:52:05;6.38;;;5.78;;
39128;SDS011;24864;49.940;19.770;2022-09-09T04:54:33;9.65;;;5.88;;
39128;SDS011;24864;49.940;19.770;2022-09-09T04:57:01;6.68;;;6.07;;
39128;SDS011;24864;49.940;19.770;2022-09-09T04:59:30;6.15;;;5.65;;
39128;SDS011;24864;49.940;19.770;2022-09-09T05:01:58;8.00;;;7.30;;
39128;SDS011;24864;49.940;19.770;2022-09-09T05:04:30;7.80;;;6.53;;
39128;SDS011;24864;49.940;19.770;2022-09-09T05:06:57;7.63;;;6.78;;
39128;SDS011;24864;49.940;19.770;2022-09-09T05:09:25;7.40;;;6.70;;
39128;SDS011;24864;49.940;19.770;2022-09-09T05:11:53;7.78;;;6.65;;
39128;SDS011;24864;49.940;19.770;2022-09-09T05:14:22;9.15;;;7.15;;
39128;SDS011;24864;49.940;19.770;2022-09-09T05:16:51;9.18;;;7.45;;
39128;SDS011;24864;49.940;19.770;2022-09-09T05:19:19;10.35;;;8.25;;
39128;SDS011;24864;49.940;19.770;2022-09-09T05:21:47;14.07;;;9.27;;
39128;SDS011;24864;49.940;19.770;2022-09-09T05:24:16;11.65;;;10.38;;
39128;SDS011;24864;49.940;19.770;2022-09-09T05:26:44;14.32;;;10.88;;
39128;SDS011;24864;49.940;19.770;2022-09-09T05:29:12;15.05;;;11.65;;
39128;SDS011;24864;49.940;19.770;2022-09-09T05:31:40;16.05;;;11.40;;
39128;SDS011;24864;49.940;19.770;2022-09-09T05:34:10;15.68;;;11.40;;
39128;SDS011;24864;49.940;19.770;2022-09-09T05:36:38;14.68;;;11.55;;
39128;SDS011;24864;49.940;19.770;2022-09-09T05:39:06;14.07;;;11.60;;
39128;SDS011;24864;49.940;19.770;2022-09-09T05:41:34;19.20;;;12.38;;
39128;SDS011;24864;49.940;19.770;2022-09-09T05:44:02;18.45;;;12.27;;
39128;SDS011;24864;49.940;19.770;2022-09-09T05:46:30;20.15;;;13.07;;
39128;SDS011;24864;49.940;19.770;2022-09-09T05:48:58;14.18;;;12.75;;
39128;SDS011;24864;49.940;19.770;2022-09-09T05:51:28;13.98;;;12.55;;
39128;SDS011;24864;49.940;19.770;2022-09-09T05:53:57;13.13;;;11.88;;
39128;SDS011;24864;49.940;19.770;2022-09-09T05:56:26;14.07;;;12.07;;
39128;SDS011;24864;49.940;19.770;2022-09-09T05:58:55;15.35;;;12.68;;
39128;SDS011;24864;49.940;19.770;2022-09-09T06:01:24;12.98;;;11.32;;
39128;SDS011;24864;49.940;19.770;2022-09-09T06:03:54;10.88;;;9.75;;
39128;SDS011;24864;49.940;19.770;2022-09-09T06:06:23;11.18;;;10.18;;
39128;SDS011;24864;49.940;19.770;2022-09-09T06:08:54;9.80;;;8.63;;
39128;SDS011;24864;49.940;19.770;2022-09-09T06:11:24;10.55;;;7.57;;
39128;SDS011;24864;49.940;19.770;2022-09-09T06:13:54;8.13;;;7.43;;
39128;SDS011;24864;49.940;19.770;2022-09-09T06:16:22;9.02;;;7.57;;
39128;SDS011;24864;49.940;19.770;2022-09-09T06:18:52;7.80;;;7.00;;
39128;SDS011;24864;49.940;19.770;2022-09-09T06:21:21;9.82;;;7.03;;
39128;SDS011;24864;49.940;19.770;2022-09-09T06:23:51;8.82;;;7.10;;
39128;SDS011;24864;49.940;19.770;2022-09-09T06:26:26;6.95;;;6.22;;
39128;SDS011;24864;49.940;19.770;2022-09-09T06:28:55;8.23;;;6.65;;
39128;SDS011;24864;49.940;19.770;2022-09-09T06:31:25;8.05;;;5.10;;
39128;SDS011;24864;49.940;19.770;2022-09-09T06:33:57;6.45;;;5.43;;
39128;SDS011;24864;49.940;19.770;2022-09-09T06:36:26;5.85;;;5.35;;
39128;SDS011;24864;49.940;19.770;2022-09-09T06:38:55;5.28;;;4.78;;
39128;SDS011;24864;49.940;19.770;2022-09-09T06:41:25;7.97;;;5.43;;
39128;SDS011;24864;49.940;19.770;2022-09-09T06:43:55;5.00;;;4.20;;
39128;SDS011;24864;49.940;19.770;2022-09-09T06:46:24;4.88;;;4.45;;
39128;SDS011;24864;49.940;19.770;2022-09-09T06:48:54;5.30;;;4.80;;
39128;SDS011;24864;49.940;19.770;2022-09-09T06:51:25;6.82;;;4.85;;
39128;SDS011;24864;49.940;19.770;2022-09-09T06:53:55;6.70;;;5.15;;
39128;SDS011;24864;49.940;19.770;2022-09-09T06:56:26;6.28;;;4.85;;
39128;SDS011;24864;49.940;19.770;2022-09-09T06:58:56;7.47;;;4.30;;
39128;SDS011;24864;49.940;19.770;2022-09-09T07:01:28;7.05;;;3.50;;
39128;SDS011;24864;49.940;19.770;2022-09-09T07:03:57;4.95;;;3.97;;
39128;SDS011;24864;49.940;19.770;2022-09-09T07:06:26;5.05;;;3.33;;
39128;SDS011;24864;49.940;19.770;2022-09-09T07:08:56;3.45;;;3.15;;
39128;SDS011;24864;49.940;19.770;2022-09-09T07:11:28;4.97;;;3.40;;
39128;SDS011;24864;49.940;19.770;2022-09-09T07:13:57;3.88;;;2.83;;
39128;SDS011;24864;49.940;19.770;2022-09-09T07:16:26;3.35;;;2.72;;
39128;SDS011;24864;49.940;19.770;2022-09-09T07:18:55;3.00;;;2.70;;
39128;SDS011;24864;49.940;19.770;2022-09-09T07:21:24;5.80;;;3.15;;
39128;SDS011;24864;49.940;19.770;2022-09-09T07:23:54;4.25;;;3.05;;
39128;SDS011;24864;49.940;19.770;2022-09-09T07:26:23;2.83;;;1.88;;
39128;SDS011;24864;49.940;19.770;2022-09-09T07:28:53;2.55;;;2.00;;
39128;SDS011;24864;49.940;19.770;2022-09-09T07:31:23;2.58;;;2.13;;
39128;SDS011;24864;49.940;19.770;2022-09-09T07:33:52;2.65;;;2.00;;
39128;SDS011;24864;49.940;19.770;2022-09-09T07:36:21;7.28;;;2.55;;
39128;SDS011;24864;49.940;19.770;2022-09-09T07:38:55;2.30;;;2.10;;
39128;SDS011;24864;49.940;19.770;2022-09-09T07:41:24;5.43;;;2.15;;
39128;SDS011;24864;49.940;19.770;2022-09-09T07:43:54;3.35;;;2.17;;
39128;SDS011;24864;49.940;19.770;2022-09-09T07:46:24;3.35;;;2.50;;
39128;SDS011;24864;49.940;19.770;2022-09-09T07:48:54;3.25;;;2.10;;
39128;SDS011;24864;49.940;19.770;2022-09-09T07:51:24;4.65;;;2.45;;
39128;SDS011;24864;49.940;19.770;2022-09-09T07:53:55;2.88;;;1.58;;
39128;SDS011;24864;49.940;19.770;2022-09-09T07:56:25;2.15;;;1.13;;
39128;SDS011;24864;49.940;19.770;2022-09-09T07:58:56;5.75;;;1.92;;
39128;SDS011;24864;49.940;19.770;2022-09-09T08:01:26;2.90;;;1.90;;
39128;SDS011;24864;49.940;19.770;2022-09-09T08:03:56;3.95;;;2.17;;
39128;SDS011;24864;49.940;19.770;2022-09-09T08:06:28;2.38;;;1.90;;
39128;SDS011;24864;49.940;19.770;2022-09-09T08:08:57;1.65;;;1.42;;
39128;SDS011;24864;49.940;19.770;2022-09-09T08:11:27;3.05;;;2.25;;
39128;SDS011;24864;49.940;19.770;2022-09-09T08:14:02;2.92;;;1.95;;
39128;SDS011;24864;49.940;19.770;2022-09-09T08:16:31;3.78;;;2.42;;
39128;SDS011;24864;49.940;19.770;2022-09-09T08:19:03;2.35;;;2.15;;
39128;SDS011;24864;49.940;19.770;2022-09-09T08:21:32;2.35;;;1.90;;
39128;SDS011;24864;49.940;19.770;2022-09-09T08:24:00;3.60;;;1.77;;
39128;SDS011;24864;49.940;19.770;2022-09-09T08:26:30;2.85;;;1.85;;
39128;SDS011;24864;49.940;19.770;2022-09-09T08:28:59;7.15;;;2.17;;
39128;SDS011;24864;49.940;19.770;2022-09-09T08:31:30;5.00;;;1.92;;
39128;SDS011;24864;49.940;19.770;2022-09-09T08:34:01;1.98;;;1.83;;
39128;SDS011;24864;49.940;19.770;2022-09-09T08:36:31;2.90;;;2.13;;
39128;SDS011;24864;49.940;19.770;2022-09-09T08:39:01;2.20;;;1.83;;
39128;SDS011;24864;49.940;19.770;2022-09-09T08:41:31;4.38;;;2.50;;
39128;SDS011;24864;49.940;19.770;2022-09-09T08:44:23;4.40;;;1.60;;
39128;SDS011;24864;49.940;19.770;2022-09-09T08:47:05;18.15;;;7.18;;
39128;SDS011;24864;49.940;19.770;2022-09-09T08:49:47;5.10;;;2.55;;
39128;SDS011;24864;49.940;19.770;2022-09-09T08:52:23;7.00;;;2.00;;
39128;SDS011;24864;49.940;19.770;2022-09-09T08:54:55;3.00;;;1.80;;
39128;SDS011;24864;49.940;19.770;2022-09-09T08:57:30;3.83;;;1.63;;
39128;SDS011;24864;49.940;19.770;2022-09-09T08:59:59;2.58;;;1.60;;
39128;SDS011;24864;49.940;19.770;2022-09-09T09:02:30;2.80;;;1.60;;
39128;SDS011;24864;49.940;19.770;2022-09-09T09:05:10;5.72;;;1.45;;
39128;SDS011;24864;49.940;19.770;2022-09-09T09:07:49;1.75;;;1.00;;
39128;SDS011;24864;49.940;19.770;2022-09-09T09:10:33;3.65;;;1.10;;
39128;SDS011;24864;49.940;19.770;2022-09-09T09:13:12;2.22;;;1.83;;
39128;SDS011;24864;49.940;19.770;2022-09-09T09:15:44;1.67;;;1.10;;
39128;SDS011;24864;49.940;19.770;2022-09-09T09:18:17;1.30;;;1.20;;
39128;SDS011;24864;49.940;19.770;2022-09-09T09:20:49;2.30;;;1.60;;
39128;SDS011;24864;49.940;19.770;2022-09-09T09:23:22;1.27;;;1.15;;
39128;SDS011;24864;49.940;19.770;2022-09-09T09:25:54;1.88;;;1.30;;
39128;SDS011;24864;49.940;19.770;2022-09-09T09:28:27;2.33;;;1.20;;
39128;SDS011;24864;49.940;19.770;2022-09-09T09:30:58;1.77;;;1.20;;
39128;SDS011;24864;49.940;19.770;2022-09-09T09:33:33;1.58;;;1.30;;
39128;SDS011;24864;49.940;19.770;2022-09-09T09:36:07;3.67;;;1.10;;
39128;SDS011;24864;49.940;19.770;2022-09-09T09:38:35;2.97;;;1.50;;
39128;SDS011;24864;49.940;19.770;2022-09-09T09:41:31;2.15;;;1.70;;
39128;SDS011;24864;49.940;19.770;2022-09-09T09:44:02;1.13;;;1.02;;
39128;SDS011;24864;49.940;19.770;2022-09-09T09:46:31;1.80;;;1.08;;
39128;SDS011;24864;49.940;19.770;2022-09-09T09:49:01;1.85;;;1.00;;
39128;SDS011;24864;49.940;19.770;2022-09-09T09:51:32;2.53;;;1.10;;
39128;SDS011;24864;49.940;19.770;2022-09-09T09:56:52;3.15;;;1.75;;
39128;SDS011;24864;49.940;19.770;2022-09-09T09:59:21;2.50;;;1.40;;
39128;SDS011;24864;49.940;19.770;2022-09-09T10:02:13;1.77;;;1.00;;
39128;SDS011;24864;49.940;19.770;2022-09-09T10:04:43;3.50;;;1.20;;
39128;SDS011;24864;49.940;19.770;2022-09-09T10:07:15;1.83;;;1.20;;
39128;SDS011;24864;49.940;19.770;2022-09-09T10:09:46;1.77;;;1.20;;
39128;SDS011;24864;49.940;19.770;2022-09-09T10:12:23;3.28;;;1.73;;
39128;SDS011;24864;49.940;19.770;2022-09-09T10:15:01;1.95;;;1.40;;
39128;SDS011;24864;49.940;19.770;2022-09-09T10:17:35;7.05;;;1.50;;
39128;SDS011;24864;49.940;19.770;2022-09-09T10:20:20;5.07;;;1.50;;
39128;SDS011;24864;49.940;19.770;2022-09-09T10:23:09;2.97;;;1.63;;
39128;SDS011;24864;49.940;19.770;2022-09-09T10:25:55;1.75;;;1.52;;
39128;SDS011;24864;49.940;19.770;2022-09-09T10:28:46;2.43;;;1.70;;
39128;SDS011;24864;49.940;19.770;2022-09-09T10:31:28;2.35;;;1.55;;
39128;SDS011;24864;49.940;19.770;2022-09-09T10:34:09;4.30;;;1.63;;
39128;SDS011;24864;49.940;19.770;2022-09-09T10:36:48;1.60;;;1.38;;
39128;SDS011;24864;49.940;19.770;2022-09-09T10:42:08;2.25;;;1.20;;
39128;SDS011;24864;49.940;19.770;2022-09-09T10:44:43;1.75;;;1.10;;
39128;SDS011;24864;49.940;19.770;2022-09-09T10:47:30;1.90;;;1.40;;
39128;SDS011;24864;49.940;19.770;2022-09-09T10:50:17;3.28;;;1.20;;
39128;SDS011;24864;49.940;19.770;2022-09-09T10:53:24;1.25;;;0.90;;
39128;SDS011;24864;49.940;19.770;2022-09-09T10:56:05;1.35;;;1.00;;
39128;SDS011;24864;49.940;19.770;2022-09-09T10:58:36;0.70;;;0.70;;
39128;SDS011;24864;49.940;19.770;2022-09-09T11:01:11;5.00;;;1.00;;
39128;SDS011;24864;49.940;19.770;2022-09-09T11:03:43;2.55;;;1.00;;
39128;SDS011;24864;49.940;19.770;2022-09-09T11:06:18;0.80;;;0.80;;
39128;SDS011;24864;49.940;19.770;2022-09-09T11:08:50;1.15;;;0.80;;
39128;SDS011;24864;49.940;19.770;2022-09-09T11:11:25;1.92;;;0.82;;
39128;SDS011;24864;49.940;19.770;2022-09-09T11:13:58;2.45;;;0.82;;
39128;SDS011;24864;49.940;19.770;2022-09-09T11:16:33;2.25;;;0.90;;
39128;SDS011;24864;49.940;19.770;2022-09-09T11:19:11;2.05;;;1.00;;
39128;SDS011;24864;49.940;19.770;2022-09-09T11:21:46;3.30;;;1.00;;
39128;SDS011;24864;49.940;19.770;2022-09-09T11:24:18;2.60;;;0.97;;
39128;SDS011;24864;49.940;19.770;2022-09-09T11:26:51;1.02;;;0.90;;
39128;SDS011;24864;49.940;19.770;2022-09-09T11:29:33;1.00;;;0.90;;
39128;SDS011;24864;49.940;19.770;2022-09-09T11:32:16;2.20;;;0.85;;
39128;SDS011;24864;49.940;19.770;2022-09-09T11:35:01;1.25;;;1.05;;
39128;SDS011;24864;49.940;19.770;2022-09-09T11:37:39;1.52;;;1.10;;
39128;SDS011;24864;49.940;19.770;2022-09-09T11:40:23;1.38;;;1.20;;
39128;SDS011;24864;49.940;19.770;2022-09-09T11:43:02;3.60;;;3.25;;
39128;SDS011;24864;49.940;19.770;2022-09-09T11:45:33;9.13;;;7.82;;
39128;SDS011;24864;49.940;19.770;2022-09-09T11:48:03;2.53;;;1.60;;
39128;SDS011;24864;49.940;19.770;2022-09-09T11:50:34;2.83;;;0.80;;
39128;SDS011;24864;49.940;19.770;2022-09-09T11:53:05;2.42;;;0.90;;
39128;SDS011;24864;49.940;19.770;2022-09-09T11:55:59;0.85;;;0.80;;
39128;SDS011;24864;49.940;19.770;2022-09-09T11:58:35;13.35;;;12.20;;
39128;SDS011;24864;49.940;19.770;2022-09-09T12:04:05;1.50;;;0.93;;
39128;SDS011;24864;49.940;19.770;2022-09-09T12:06:56;1.85;;;1.00;;
39128;SDS011;24864;49.940;19.770;2022-09-09T12:09:28;1.48;;;1.38;;
39128;SDS011;24864;49.940;19.770;2022-09-09T12:12:06;1.67;;;0.88;;
39128;SDS011;24864;49.940;19.770;2022-09-09T12:14:36;1.48;;;0.90;;
39128;SDS011;24864;49.940;19.770;2022-09-09T12:17:09;1.40;;;0.80;;
39128;SDS011;24864;49.940;19.770;2022-09-09T12:19:46;1.30;;;1.00;;
39128;SDS011;24864;49.940;19.770;2022-09-09T12:22:16;1.88;;;0.80;;
39128;SDS011;24864;49.940;19.770;2022-09-09T12:24:54;2.65;;;1.13;;
39128;SDS011;24864;49.940;19.770;2022-09-09T12:27:34;0.82;;;0.70;;
39128;SDS011;24864;49.940;19.770;2022-09-09T12:30:14;1.13;;;0.80;;
39128;SDS011;24864;49.940;19.770;2022-09-09T12:32:43;3.08;;;1.00;;
39128;SDS011;24864;49.940;19.770;2022-09-09T12:35:11;1.48;;;0.90;;
39128;SDS011;24864;49.940;19.770;2022-09-09T12:37:48;1.02;;;0.85;;
39128;SDS011;24864;49.940;19.770;2022-09-09T12:40:21;1.80;;;1.00;;
39128;SDS011;24864;49.940;19.770;2022-09-09T12:42:51;1.48;;;0.98;;
39128;SDS011;24864;49.940;19.770;2022-09-09T12:45:22;1.63;;;0.88;;
39128;SDS011;24864;49.940;19.770;2022-09-09T12:47:53;1.23;;;0.90;;
39128;SDS011;24864;49.940;19.770;2022-09-09T12:50:25;2.42;;;1.00;;
39128;SDS011;24864;49.940;19.770;2022-09-09T12:52:57;1.63;;;1.05;;
39128;SDS011;24864;49.940;19.770;2022-09-09T12:55:27;1.98;;;1.23;;
39128;SDS011;24864;49.940;19.770;2022-09-09T12:58:01;0.88;;;0.88;;
39128;SDS011;24864;49.940;19.770;2022-09-09T13:00:32;1.17;;;0.90;;
39128;SDS011;24864;49.940;19.770;2022-09-09T13:03:13;1.05;;;0.80;;
39128;SDS011;24864;49.940;19.770;2022-09-09T13:05:44;0.70;;;0.70;;
39128;SDS011;24864;49.940;19.770;2022-09-09T13:08:13;1.45;;;0.90;;
39128;SDS011;24864;49.940;19.770;2022-09-09T13:10:46;3.10;;;1.08;;
39128;SDS011;24864;49.940;19.770;2022-09-09T13:13:26;2.13;;;1.00;;
39128;SDS011;24864;49.940;19.770;2022-09-09T13:15:56;1.00;;;0.90;;
39128;SDS011;24864;49.940;19.770;2022-09-09T13:18:27;0.90;;;0.80;;
39128;SDS011;24864;49.940;19.770;2022-09-09T13:20:57;2.07;;;0.90;;
39128;SDS011;24864;49.940;19.770;2022-09-09T13:23:26;1.08;;;0.98;;
39128;SDS011;24864;49.940;19.770;2022-09-09T13:25:57;1.50;;;0.70;;
39128;SDS011;24864;49.940;19.770;2022-09-09T13:28:28;1.40;;;1.00;;
39128;SDS011;24864;49.940;19.770;2022-09-09T13:31:01;1.50;;;1.17;;
39128;SDS011;24864;49.940;19.770;2022-09-09T13:33:31;1.48;;;0.90;;
39128;SDS011;24864;49.940;19.770;2022-09-09T13:36:01;2.80;;;0.90;;
39128;SDS011;24864;49.940;19.770;2022-09-09T13:38:32;1.97;;;1.00;;
39128;SDS011;24864;49.940;19.770;2022-09-09T13:41:03;1.00;;;0.90;;
39128;SDS011;24864;49.940;19.770;2022-09-09T13:43:35;0.93;;;0.80;;
39128;SDS011;24864;49.940;19.770;2022-09-09T13:46:21;0.98;;;0.90;;
39128;SDS011;24864;49.940;19.770;2022-09-09T13:48:59;1.10;;;0.90;;
39128;SDS011;24864;49.940;19.770;2022-09-09T13:51:30;2.25;;;1.10;;
39128;SDS011;24864;49.940;19.770;2022-09-09T13:54:03;1.00;;;0.90;;
39128;SDS011;24864;49.940;19.770;2022-09-09T13:56:33;1.40;;;1.00;;
39128;SDS011;24864;49.940;19.770;2022-09-09T13:59:03;1.52;;;1.30;;
39128;SDS011;24864;49.940;19.770;2022-09-09T14:01:32;1.27;;;1.00;;
39128;SDS011;24864;49.940;19.770;2022-09-09T14:04:01;1.88;;;1.20;;
39128;SDS011;24864;49.940;19.770;2022-09-09T14:06:29;1.50;;;1.17;;
39128;SDS011;24864;49.940;19.770;2022-09-09T14:08:58;1.10;;;1.02;;
39128;SDS011;24864;49.940;19.770;2022-09-09T14:11:27;1.52;;;1.40;;
39128;SDS011;24864;49.940;19.770;2022-09-09T14:13:54;2.13;;;1.00;;
39128;SDS011;24864;49.940;19.770;2022-09-09T14:16:24;1.60;;;1.25;;
39128;SDS011;24864;49.940;19.770;2022-09-09T14:18:54;1.15;;;0.95;;
39128;SDS011;24864;49.940;19.770;2022-09-09T14:21:23;1.67;;;1.02;;
39128;SDS011;24864;49.940;19.770;2022-09-09T14:23:51;1.60;;;1.05;;
39128;SDS011;24864;49.940;19.770;2022-09-09T14:26:20;2.05;;;1.10;;
39128;SDS011;24864;49.940;19.770;2022-09-09T14:28:49;1.25;;;0.73;;
39128;SDS011;24864;49.940;19.770;2022-09-09T14:31:24;2.38;;;0.90;;
39128;SDS011;24864;49.940;19.770;2022-09-09T14:33:52;1.33;;;0.82;;
39128;SDS011;24864;49.940;19.770;2022-09-09T14:36:20;0.85;;;0.70;;
39128;SDS011;24864;49.940;19.770;2022-09-09T14:38:49;1.55;;;0.82;;
39128;SDS011;24864;49.940;19.770;2022-09-09T14:41:18;4.78;;;1.17;;
39128;SDS011;24864;49.940;19.770;2022-09-09T14:43:48;1.70;;;0.90;;
39128;SDS011;24864;49.940;19.770;2022-09-09T14:46:19;2.00;;;1.00;;
39128;SDS011;24864;49.940;19.770;2022-09-09T14:48:48;3.30;;;1.27;;
39128;SDS011;24864;49.940;19.770;2022-09-09T14:51:18;1.83;;;1.02;;
39128;SDS011;24864;49.940;19.770;2022-09-09T14:56:19;3.00;;;0.90;;
39128;SDS011;24864;49.940;19.770;2022-09-09T14:58:49;5.97;;;1.00;;
39128;SDS011;24864;49.940;19.770;2022-09-09T15:01:19;0.75;;;0.75;;
39128;SDS011;24864;49.940;19.770;2022-09-09T15:03:50;1.40;;;0.88;;
39128;SDS011;24864;49.940;19.770;2022-09-09T15:06:21;1.15;;;0.80;;
39128;SDS011;24864;49.940;19.770;2022-09-09T15:08:49;1.15;;;0.80;;
39128;SDS011;24864;49.940;19.770;2022-09-09T15:11:18;0.85;;;0.75;;